Time;durP1;ratioP1;P1;durP2;ratioP2;P2;SDS_P1;SDS_P2;PMS_P1;PMS_P2;Temp;Humidity;BMP_temperature;BMP_pressure;BME280_temperature;BME280_humidity;BME280_pressure;Samples;Min_cycle;Max_cycle;Signal;HPM_P1;HPM_P2
2022/02/23 00:01:40;;;;;;;3.67;1.52;;;9.40;92.30;;;;;;10050439;28;20156;-69
2022/02/23 00:06:31;;;;;;;1.80;1.67;;;9.40;92.40;;;;;;10050183;28;20515;-74
2022/02/23 00:11:22;;;;;;;3.72;0.80;;;9.40;92.40;;;;;;10050966;28;20025;-67
2022/02/23 00:16:13;;;;;;;2.90;1.88;;;9.40;92.50;;;;;;10050389;28;20022;-72
2022/02/23 00:21:04;;;;;;;1.27;0.82;;;9.40;92.50;;;;;;10050075;28;20492;-70
2022/02/23 00:25:55;;;;;;;5.07;1.15;;;9.50;92.60;;;;;;10039758;28;20041;-73
2022/02/23 00:30:46;;;;;;;4.60;1.05;;;9.40;92.60;;;;;;10045481;28;20040;-72
2022/02/23 00:35:37;;;;;;;2.97;0.90;;;9.50;92.70;;;;;;10048482;28;20129;-69
2022/02/23 00:40:27;;;;;;;1.25;0.88;;;9.50;92.70;;;;;;10047387;28;20027;-65
2022/02/23 00:45:18;;;;;;;4.40;0.73;;;9.50;92.70;;;;;;10046826;28;20497;-66
2022/02/23 00:50:09;;;;;;;1.60;0.85;;;9.50;92.70;;;;;;10047882;28;20125;-71
2022/02/23 00:55:00;;;;;;;2.05;1.67;;;9.50;92.80;;;;;;10050786;28;20025;-71
2022/02/23 00:59:51;;;;;;;0.73;0.50;;;9.50;93.00;;;;;;10048548;28;20033;-69
2022/02/23 01:04:42;;;;;;;4.28;0.98;;;9.60;93.00;;;;;;10046363;28;20124;-69
2022/02/23 01:09:33;;;;;;;3.47;1.20;;;9.50;93.20;;;;;;10046895;28;20104;-66
2022/02/23 01:14:24;;;;;;;1.05;0.47;;;9.50;93.30;;;;;;10030758;28;20033;-66
2022/02/23 01:19:14;;;;;;;3.30;0.63;;;9.40;93.40;;;;;;10049058;28;20356;-72
2022/02/23 01:24:05;;;;;;;1.13;0.63;;;9.40;93.50;;;;;;10048180;28;20041;-71
2022/02/23 01:28:57;;;;;;;1.98;0.68;;;9.30;93.60;;;;;;10042826;28;20076;-71
2022/02/23 01:33:48;;;;;;;2.47;1.00;;;9.30;93.80;;;;;;10052882;28;20029;-72
2022/02/23 01:38:39;;;;;;;3.75;1.35;;;9.20;93.80;;;;;;10051806;28;20397;-73
2022/02/23 01:43:30;;;;;;;2.60;1.00;;;9.20;94.00;;;;;;10050995;28;20552;-71
2022/02/23 01:48:21;;;;;;;3.08;0.80;;;9.30;94.40;;;;;;10054188;28;20056;-72
2022/02/23 01:53:12;;;;;;;4.80;1.40;;;9.30;94.10;;;;;;10046108;28;20084;-73
2022/02/23 01:58:03;;;;;;;1.73;0.75;;;9.30;94.20;;;;;;10051334;28;20036;-71
2022/02/23 02:02:54;;;;;;;1.33;0.80;;;9.30;94.20;;;;;;10050220;28;20053;-72
2022/02/23 02:07:45;;;;;;;3.20;0.88;;;9.40;94.10;;;;;;10047477;28;20104;-73
2022/02/23 02:12:36;;;;;;;1.65;0.60;;;9.40;94.20;;;;;;10038600;28;20427;-71
2022/02/23 02:17:27;;;;;;;1.67;0.52;;;9.50;94.20;;;;;;10053210;28;20036;-72
2022/02/23 02:22:21;;;;;;;0.98;0.43;;;9.50;94.40;;;;;;10060831;28;20371;-67
2022/02/23 02:27:13;;;;;;;3.42;0.98;;;9.60;94.40;;;;;;10064455;28;20033;-74
2022/02/23 02:32:05;;;;;;;2.45;0.77;;;9.50;94.50;;;;;;10043645;28;20102;-70
2022/02/23 02:37:00;;;;;;;2.85;0.98;;;9.50;94.50;;;;;;10054860;28;20091;-72
2022/02/23 02:41:54;;;;;;;2.17;0.75;;;9.60;94.60;;;;;;10052407;28;20370;-72
2022/02/23 02:46:46;;;;;;;1.90;1.10;;;9.60;94.70;;;;;;10055890;28;20133;-71
2022/02/23 02:51:37;;;;;;;1.25;0.68;;;9.60;94.70;;;;;;10054085;28;20040;-66
2022/02/23 02:56:28;;;;;;;3.35;0.85;;;9.60;94.80;;;;;;10041813;28;20033;-69
2022/02/23 03:01:20;;;;;;;1.00;0.55;;;9.60;94.80;;;;;;10042622;28;20072;-72
2022/02/23 03:06:10;;;;;;;0.70;0.50;;;9.70;94.80;;;;;;10044562;28;20639;-70
2022/02/23 03:11:01;;;;;;;1.38;0.70;;;9.60;94.90;;;;;;10049392;28;20120;-63
2022/02/23 03:21:39;;;;;;;1.67;0.93;;;9.50;95.00;;;;;;10048750;28;20124;-66
2022/02/23 03:26:30;;;;;;;1.77;0.63;;;9.40;95.00;;;;;;10049584;28;20121;-64
2022/02/23 03:31:34;;;;;;;3.78;1.48;;;9.50;95.10;;;;;;10051325;28;20025;-66
2022/02/23 04:11:13;;;;;;;0.73;0.43;;;9.20;94.90;;;;;;10013983;28;20044;-67
2022/02/23 04:16:04;;;;;;;3.47;0.60;;;9.10;95.00;;;;;;10048488;28;20456;-66
2022/02/23 04:20:55;;;;;;;2.83;0.82;;;9.10;95.10;;;;;;10048411;28;20022;-63
2022/02/23 04:25:45;;;;;;;1.95;0.80;;;8.30;94.80;;;;;;10045582;28;20033;-69
2022/02/23 04:30:36;;;;;;;2.85;0.90;;;9.10;94.90;;;;;;10049408;28;20033;-63
2022/02/23 04:35:27;;;;;;;1.75;1.25;;;9.10;95.00;;;;;;10048275;28;20037;-63
2022/02/23 04:40:18;;;;;;;2.08;0.47;;;9.10;94.90;;;;;;10044180;28;20025;-72
2022/02/23 04:45:08;;;;;;;1.58;0.68;;;9.10;94.80;;;;;;10048477;28;20025;-64
2022/02/23 04:49:59;;;;;;;1.10;0.52;;;9.10;94.80;;;;;;10041246;28;20032;-64
2022/02/23 04:54:53;;;;;;;3.15;2.10;;;9.00;94.80;;;;;;10052125;28;20491;-67
2022/02/23 04:59:44;;;;;;;3.42;0.80;;;9.00;94.70;;;;;;10047217;28;20067;-67
2022/02/23 05:04:35;;;;;;;1.20;0.70;;;8.80;94.90;;;;;;10048887;28;20040;-65
2022/02/23 05:09:26;;;;;;;1.73;1.00;;;8.70;94.90;;;;;;10046017;28;20029;-71
2022/02/23 05:14:17;;;;;;;1.02;0.82;;;8.70;94.90;;;;;;10047149;28;20083;-70
2022/02/23 05:19:07;;;;;;;1.30;0.80;;;8.70;94.90;;;;;;10044037;28;20359;-72
2022/02/23 05:24:01;;;;;;;0.80;0.68;;;8.70;94.90;;;;;;10045304;28;20036;-74
2022/02/23 05:28:52;;;;;;;2.85;1.65;;;8.70;94.80;;;;;;10047665;28;20519;-71
2022/02/23 05:33:42;;;;;;;3.60;1.65;;;8.70;94.80;;;;;;10046920;28;20105;-72
2022/02/23 05:38:33;;;;;;;3.60;1.55;;;8.70;94.70;;;;;;10047468;28;20049;-70
2022/02/23 05:43:24;;;;;;;3.33;0.95;;;8.60;94.70;;;;;;10043003;28;20444;-71
2022/02/23 05:48:15;;;;;;;3.42;0.98;;;8.50;94.50;;;;;;10045562;28;20116;-63
2022/02/23 05:53:06;;;;;;;3.75;1.10;;;8.40;94.70;;;;;;10048284;28;20475;-63
2022/02/23 05:57:56;;;;;;;2.90;0.77;;;8.40;94.80;;;;;;10047378;28;20107;-69
2022/02/23 06:02:47;;;;;;;3.40;1.38;;;8.30;94.80;;;;;;10046721;28;20411;-68
2022/02/23 06:07:37;;;;;;;2.13;1.15;;;8.20;95.10;;;;;;10045513;28;20409;-71
2022/02/23 06:12:28;;;;;;;1.83;0.95;;;8.20;94.90;;;;;;10044492;28;20050;-69
2022/02/23 06:17:19;;;;;;;1.55;0.80;;;8.20;94.90;;;;;;10043673;28;20101;-71
2022/02/23 06:22:10;;;;;;;1.02;0.80;;;8.20;94.90;;;;;;10048167;28;20156;-73
2022/02/23 06:27:01;;;;;;;1.75;1.00;;;8.20;94.80;;;;;;10047675;28;20116;-73
2022/02/23 06:32:05;;;;;;;1.27;0.80;;;8.20;94.90;;;;;;10044422;28;20525;-70
2022/02/23 06:36:55;;;;;;;1.20;0.75;;;8.20;94.90;;;;;;10029565;28;20025;-66
2022/02/23 06:41:48;;;;;;;4.00;1.30;;;8.20;94.90;;;;;;10045601;28;20031;-73
2022/02/23 06:46:39;;;;;;;1.95;1.05;;;8.30;94.90;;;;;;10045524;28;20577;-70
2022/02/23 06:51:31;;;;;;;2.28;1.48;;;8.20;95.00;;;;;;10046053;28;20403;-66
2022/02/23 06:56:21;;;;;;;1.45;0.98;;;8.20;95.00;;;;;;10045668;28;20037;-67
2022/02/23 07:01:18;;;;;;;3.05;1.40;;;8.10;95.10;;;;;;10043485;28;20026;-64
2022/02/23 07:06:09;;;;;;;2.38;1.02;;;8.20;95.00;;;;;;10051899;28;20515;-66
2022/02/23 07:11:00;;;;;;;2.50;1.02;;;8.20;95.00;;;;;;10053022;28;20037;-63
2022/02/23 07:15:50;;;;;;;1.27;1.10;;;8.20;95.00;;;;;;10049800;28;20345;-63
2022/02/23 07:20:41;;;;;;;4.03;1.17;;;8.20;95.00;;;;;;10045224;28;20103;-67
2022/02/23 07:25:32;;;;;;;2.83;1.05;;;8.20;95.00;;;;;;10052489;28;20411;-65
2022/02/23 07:30:23;;;;;;;3.28;1.25;;;8.20;95.00;;;;;;10048646;28;20091;-71
2022/02/23 07:35:14;;;;;;;2.35;1.15;;;8.30;95.00;;;;;;10047401;28;20311;-65
2022/02/23 07:40:09;;;;;;;1.23;0.85;;;8.30;94.90;;;;;;10046863;28;20083;-65
2022/02/23 07:45:00;;;;;;;6.70;1.35;;;8.40;95.00;;;;;;10051150;28;20075;-67
2022/02/23 07:49:50;;;;;;;1.60;1.15;;;8.50;94.90;;;;;;10050702;28;20411;-67
2022/02/23 07:54:41;;;;;;;2.13;1.05;;;8.60;94.80;;;;;;10049422;28;20025;-66
2022/02/23 07:59:32;;;;;;;2.83;1.23;;;8.60;94.80;;;;;;10049329;28;20148;-65
2022/02/23 08:04:23;;;;;;;2.75;1.52;;;8.70;94.70;;;;;;10047659;28;20067;-65
2022/02/23 08:09:13;;;;;;;2.72;1.00;;;8.80;94.70;;;;;;10049053;28;20458;-66
2022/02/23 08:14:05;;;;;;;1.65;1.20;;;8.90;94.70;;;;;;10048641;28;20045;-67
2022/02/23 08:24:06;;;;;;;7.90;1.50;;;9.10;94.50;;;;;;10047829;28;20052;-63
2022/02/23 08:28:56;;;;;;;4.70;1.60;;;9.10;94.40;;;;;;10048815;28;20108;-68
2022/02/23 08:33:47;;;;;;;2.97;1.17;;;9.20;94.30;;;;;;10048626;28;20172;-66
2022/02/23 08:38:38;;;;;;;7.30;1.58;;;9.30;94.30;;;;;;10045291;28;20030;-65
2022/02/23 08:43:29;;;;;;;2.65;1.10;;;9.50;94.30;;;;;;10048247;28;20036;-67
2022/02/23 08:48:20;;;;;;;2.80;1.65;;;9.40;94.20;;;;;;10045001;28;20053;-66
2022/02/23 08:53:10;;;;;;;3.20;1.52;;;9.50;94.10;;;;;;10045496;28;20030;-65
2022/02/23 08:58:01;;;;;;;2.47;1.58;;;9.60;93.90;;;;;;10045853;28;20022;-65
2022/02/23 09:02:52;;;;;;;3.50;1.70;;;9.70;94.00;;;;;;10043195;28;21064;-68
2022/02/23 09:07:43;;;;;;;5.45;2.13;;;9.90;93.90;;;;;;10044921;28;20018;-66
2022/02/23 09:12:34;;;;;;;3.95;2.38;;;10.00;93.80;;;;;;10044762;28;20131;-63
2022/02/23 09:17:24;;;;;;;3.60;1.45;;;9.90;93.40;;;;;;10046155;28;20040;-64
2022/02/23 09:22:16;;;;;;;3.45;1.50;;;10.10;93.70;;;;;;10042181;28;20037;-64
2022/02/23 09:27:06;;;;;;;4.90;1.88;;;10.10;93.60;;;;;;10041711;28;20071;-64
2022/02/23 09:31:57;;;;;;;5.00;1.67;;;10.30;93.50;;;;;;10045305;28;20513;-67
2022/02/23 09:36:48;;;;;;;2.20;1.30;;;10.40;93.40;;;;;;10044516;28;20095;-67
2022/02/23 09:41:40;;;;;;;3.88;1.58;;;10.40;93.30;;;;;;10047903;28;20488;-67
2022/02/23 09:46:31;;;;;;;6.53;1.70;;;10.50;93.30;;;;;;10033672;28;20037;-66
2022/02/23 09:51:22;;;;;;;4.38;1.48;;;10.70;93.10;;;;;;10041535;28;20059;-65
2022/02/23 09:56:14;;;;;;;4.50;1.70;;;10.70;93.00;;;;;;10044314;28;20036;-65
2022/02/23 10:01:07;;;;;;;4.53;1.50;;;10.70;92.90;;;;;;10040320;28;20014;-64
2022/02/23 10:05:57;;;;;;;4.20;1.48;;;10.70;92.90;;;;;;10046230;28;20037;-65
2022/02/23 10:10:50;;;;;;;2.60;1.10;;;10.70;92.90;;;;;;10045986;28;20557;-66
2022/02/23 10:15:44;;;;;;;3.00;1.10;;;10.70;92.60;;;;;;10045570;28;20101;-66
2022/02/23 10:20:39;;;;;;;3.65;1.52;;;10.60;92.70;;;;;;10045214;28;20022;-65
2022/02/23 10:25:31;;;;;;;2.83;1.30;;;10.80;92.60;;;;;;10044028;28;20033;-65
2022/02/23 10:30:28;;;;;;;4.15;1.48;;;11.00;92.00;;;;;;10043651;28;20037;-69
2022/02/23 10:35:26;;;;;;;3.75;1.27;;;11.00;92.30;;;;;;10044350;28;20057;-66
2022/02/23 10:40:17;;;;;;;5.93;1.75;;;11.00;92.10;;;;;;10051381;28;20033;-67
2022/02/23 10:45:08;;;;;;;3.58;1.88;;;11.10;92.00;;;;;;10051718;28;20534;-66
2022/02/23 10:50:00;;;;;;;3.60;1.73;;;11.30;91.90;;;;;;10051023;28;20063;-70
2022/02/23 10:54:51;;;;;;;4.05;1.77;;;11.80;91.70;;;;;;10051705;28;20025;-69
2022/02/23 10:59:41;;;;;;;3.50;1.73;;;11.90;91.30;;;;;;10049628;28;20483;-66
2022/02/23 11:04:32;;;;;;;3.35;1.95;;;11.90;91.40;;;;;;10052864;28;20478;-66
2022/02/23 11:09:23;;;;;;;5.38;2.00;;;11.90;91.40;;;;;;10048563;28;20109;-64
2022/02/23 11:14:19;;;;;;;6.78;2.50;;;11.60;91.50;;;;;;10048530;28;21000;-65
2022/02/23 11:19:15;;;;;;;8.48;3.88;;;11.70;91.40;;;;;;10044093;28;20116;-65
2022/02/23 11:24:10;;;;;;;6.03;2.45;;;11.70;91.50;;;;;;10050605;28;20519;-62
2022/02/23 11:29:13;;;;;;;6.55;2.13;;;11.60;91.40;;;;;;10052448;28;20492;-67
2022/02/23 11:34:10;;;;;;;2.97;2.00;;;11.60;91.70;;;;;;10050255;28;20510;-65
2022/02/23 11:39:03;;;;;;;4.57;2.20;;;11.40;91.40;;;;;;10049225;28;20032;-66
2022/02/23 11:44:10;;;;;;;4.38;2.05;;;11.30;91.40;;;;;;10051034;28;20458;-70
2022/02/23 11:49:12;;;;;;;6.82;2.78;;;11.30;91.30;;;;;;10048788;28;20492;-65
2022/02/23 11:54:03;;;;;;;3.47;1.80;;;11.50;91.10;;;;;;10048342;28;20021;-71
2022/02/23 11:58:55;;;;;;;3.58;1.88;;;11.80;91.00;;;;;;10050554;28;20029;-75
2022/02/23 12:04:18;;;;;;;5.70;2.60;;;11.90;90.80;;;;;;10051171;28;20026;-74
2022/02/23 12:09:09;;;;;;;4.15;1.98;;;12.20;90.50;;;;;;9997724;28;20120;-64
2022/02/23 12:13:59;;;;;;;5.15;2.30;;;12.30;90.70;;;;;;10050774;28;20124;-64
2022/02/23 12:18:58;;;;;;;5.60;2.28;;;12.20;90.60;;;;;;10047803;28;20025;-67
2022/02/23 12:23:49;;;;;;;5.00;1.77;;;12.10;90.60;;;;;;10049236;28;20403;-63
2022/02/23 12:28:48;;;;;;;4.50;1.95;;;12.50;90.40;;;;;;10051014;28;20028;-64
2022/02/23 12:33:41;;;;;;;4.18;1.83;;;12.80;90.10;;;;;;10047323;28;20037;-66
2022/02/23 12:38:34;;;;;;;4.35;2.00;;;12.90;90.00;;;;;;10046007;28;20029;-64
2022/02/23 12:43:34;;;;;;;5.88;1.65;;;13.10;89.80;;;;;;10048017;28;20510;-66
2022/02/23 12:48:33;;;;;;;5.53;1.70;;;13.20;89.20;;;;;;10046199;28;20209;-67
2022/02/23 12:53:40;;;;;;;6.25;1.80;;;13.60;88.60;;;;;;10045608;28;20040;-65
2022/02/23 12:58:35;;;;;;;3.17;1.58;;;14.00;88.20;;;;;;10046667;28;20105;-64
2022/02/23 13:03:26;;;;;;;7.85;2.05;;;13.90;88.30;;;;;;10048407;28;20029;-66
2022/02/23 13:08:20;;;;;;;7.30;2.00;;;13.80;88.60;;;;;;10044146;28;20033;-68
2022/02/23 13:13:11;;;;;;;2.83;1.60;;;14.40;88.80;;;;;;10044402;28;20046;-64
2022/02/23 13:18:09;;;;;;;5.03;2.17;;;14.60;88.50;;;;;;10040880;28;20531;-65
2022/02/23 13:23:02;;;;;;;3.85;1.58;;;14.80;88.80;;;;;;10043140;28;20509;-64
2022/02/23 13:28:01;;;;;;;1.75;1.23;;;15.60;88.90;;;;;;10045355;28;20030;-63
2022/02/23 13:32:59;;;;;;;5.90;1.80;;;15.90;89.60;;;;;;10045998;28;20577;-64
2022/02/23 13:37:49;;;;;;;3.58;1.35;;;16.50;90.00;;;;;;10044348;28;20249;-63
2022/02/23 13:42:43;;;;;;;3.67;1.55;;;16.60;90.20;;;;;;10045300;28;20039;-64
2022/02/23 13:47:35;;;;;;;5.25;1.52;;;17.00;90.20;;;;;;10046997;28;20030;-64
2022/02/23 13:52:32;;;;;;;3.35;1.60;;;17.30;89.80;;;;;;10043318;28;20390;-64
2022/02/23 13:57:24;;;;;;;4.78;1.58;;;17.80;88.60;;;;;;10044205;28;20047;-65
2022/02/23 14:02:14;;;;;;;3.28;1.20;;;18.20;85.40;;;;;;10043632;28;20060;-64
2022/02/23 14:07:05;;;;;;;2.05;1.00;;;18.10;85.00;;;;;;10045322;28;20038;-64
2022/02/23 14:11:59;;;;;;;2.65;1.00;;;18.70;82.70;;;;;;10046899;28;20041;-66
2022/02/23 14:16:51;;;;;;;5.15;1.73;;;18.90;80.30;;;;;;10053864;28;20032;-63
2022/02/23 14:21:50;;;;;;;4.00;2.05;;;19.20;78.90;;;;;;10054728;28;20060;-62
2022/02/23 14:26:52;;;;;;;3.22;1.23;;;20.50;75.10;;;;;;10052005;28;20113;-64
2022/02/23 14:31:44;;;;;;;5.32;1.02;;;21.00;70.90;;;;;;10053317;28;20030;-64
2022/02/23 14:36:38;;;;;;;2.83;1.00;;;23.20;67.00;;;;;;10050181;28;20029;-65
2022/02/23 14:41:29;;;;;;;;;;;24.40;61.60;;;;;;10054723;28;20508;-63
2022/02/23 14:46:19;;;;;;;1.80;0.70;;;24.00;58.10;;;;;;10052952;28;19964;-67
2022/02/23 14:51:10;;;;;;;2.78;0.90;;;25.10;57.20;;;;;;10050748;28;20029;-63
2022/02/23 14:56:01;;;;;;;2.03;1.00;;;25.70;54.00;;;;;;10051410;28;20029;-63
2022/02/23 15:00:52;;;;;;;2.30;0.88;;;26.90;50.70;;;;;;10051211;28;20089;-63
2022/02/23 15:05:43;;;;;;;2.15;0.50;;;25.90;49.70;;;;;;10052382;28;20041;-63
2022/02/23 15:10:35;;;;;;;1.30;0.70;;;25.00;49.30;;;;;;10049318;28;20415;-64
2022/02/23 15:15:26;;;;;;;1.13;0.60;;;24.10;48.20;;;;;;10049961;28;20534;-64
2022/02/23 15:20:20;;;;;;;1.25;0.70;;;21.40;51.70;;;;;;10049403;28;20121;-64
2022/02/23 15:25:11;;;;;;;1.92;0.70;;;19.10;54.10;;;;;;10048555;28;20033;-63
2022/02/23 15:30:05;;;;;;;4.10;0.90;;;17.70;55.10;;;;;;10049270;28;20056;-63
2022/02/23 15:34:55;;;;;;;1.85;1.00;;;17.30;55.20;;;;;;10049625;28;20492;-63
2022/02/23 15:39:46;;;;;;;2.80;1.23;;;17.10;54.80;;;;;;10047356;28;20264;-63
2022/02/23 15:44:37;;;;;;;2.15;0.70;;;16.60;55.20;;;;;;10046206;28;20033;-62
2022/02/23 15:49:28;;;;;;;1.40;0.60;;;16.40;55.10;;;;;;10046742;28;20034;-63
2022/02/23 15:54:19;;;;;;;0.82;0.77;;;16.20;55.10;;;;;;10048181;28;20447;-63
2022/02/23 15:59:10;;;;;;;0.93;0.57;;;16.10;55.00;;;;;;10048019;28;20492;-62
2022/02/23 16:04:01;;;;;;;2.22;0.68;;;16.00;55.30;;;;;;10048420;28;20536;-62
2022/02/23 16:08:53;;;;;;;0.65;0.40;;;15.90;55.20;;;;;;10040106;28;20100;-63
2022/02/23 16:13:44;;;;;;;1.48;0.80;;;15.60;55.80;;;;;;10047853;28;20037;-66
2022/02/23 16:18:34;;;;;;;3.85;0.60;;;16.00;55.70;;;;;;10045289;28;20033;-63
2022/02/23 16:23:25;;;;;;;5.88;1.00;;;16.00;55.00;;;;;;10046442;28;20037;-63
2022/02/23 16:28:19;;;;;;;1.13;0.50;;;15.40;56.10;;;;;;10048570;28;20028;-64
2022/02/23 16:33:10;;;;;;;1.02;0.50;;;14.90;56.90;;;;;;10044918;28;20026;-67
2022/02/23 16:38:09;;;;;;;0.68;0.57;;;14.50;57.60;;;;;;10044645;28;20029;-66
2022/02/23 16:42:59;;;;;;;1.60;0.65;;;14.30;58.00;;;;;;10047935;28;20048;-64
2022/02/23 16:47:50;;;;;;;2.58;0.85;;;14.20;58.10;;;;;;10049602;28;20044;-63
2022/02/23 16:52:41;;;;;;;2.15;1.08;;;14.00;58.50;;;;;;10046916;28;20025;-63
2022/02/23 16:57:32;;;;;;;0.70;0.70;;;13.90;58.70;;;;;;10045675;28;20071;-65
2022/02/23 17:02:22;;;;;;;1.10;0.70;;;13.80;59.00;;;;;;10046272;28;20037;-62
2022/02/23 17:07:13;;;;;;;3.88;0.82;;;13.70;59.30;;;;;;10045362;28;20100;-63
2022/02/23 17:12:05;;;;;;;1.65;0.85;;;13.60;59.50;;;;;;10044906;28;20077;-62
2022/02/23 17:16:56;;;;;;;2.30;1.35;;;13.60;59.80;;;;;;10042632;28;20029;-63
2022/02/23 17:21:47;;;;;;;2.65;1.70;;;13.70;60.00;;;;;;10049277;28;20292;-64
2022/02/23 17:26:37;;;;;;;1.38;1.20;;;13.60;60.30;;;;;;10046341;28;20029;-63
2022/02/23 17:31:28;;;;;;;1.75;1.10;;;13.60;60.40;;;;;;10046166;28;20029;-63
2022/02/23 17:36:19;;;;;;;3.45;1.88;;;13.60;60.70;;;;;;10044574;28;20045;-63
2022/02/23 17:41:10;;;;;;;2.10;1.33;;;13.40;60.80;;;;;;10044988;28;20121;-64
2022/02/23 17:46:02;;;;;;;4.97;1.45;;;13.20;61.20;;;;;;10044000;28;20120;-65
2022/02/23 17:50:54;;;;;;;3.50;1.67;;;13.20;61.50;;;;;;10045822;28;20514;-63
2022/02/23 17:55:45;;;;;;;2.60;1.45;;;13.00;61.90;;;;;;10044540;28;20033;-64
2022/02/23 18:00:35;;;;;;;3.30;1.77;;;12.90;62.10;;;;;;10046031;28;20025;-65
2022/02/23 18:05:26;;;;;;;3.40;2.17;;;12.80;62.40;;;;;;10043268;28;20045;-65
2022/02/23 18:10:17;;;;;;;3.55;2.00;;;12.80;62.80;;;;;;10045463;28;20025;-64
2022/02/23 18:15:12;;;;;;;3.20;1.60;;;12.60;63.20;;;;;;10043763;28;20080;-65
2022/02/23 18:20:04;;;;;;;4.82;2.15;;;12.50;63.50;;;;;;10044893;28;20029;-63
2022/02/23 18:24:55;;;;;;;4.40;2.22;;;12.50;63.80;;;;;;10040954;28;20050;-63
2022/02/23 18:29:46;;;;;;;5.03;3.10;;;12.50;64.10;;;;;;10046823;28;20084;-63
2022/02/23 18:34:37;;;;;;;3.97;2.50;;;12.40;64.50;;;;;;10045988;28;20037;-66
2022/02/23 18:39:27;;;;;;;4.25;2.88;;;12.20;65.00;;;;;;10047256;28;20515;-66
2022/02/23 18:44:18;;;;;;;3.08;2.10;;;12.20;65.30;;;;;;10043134;28;20044;-67
2022/02/23 18:49:09;;;;;;;5.07;2.28;;;12.10;65.60;;;;;;10046586;28;20057;-63
2022/02/23 18:53:59;;;;;;;3.33;2.75;;;12.10;66.10;;;;;;10042913;28;20048;-68
2022/02/23 18:58:50;;;;;;;5.18;2.55;;;12.00;66.30;;;;;;10049581;28;20022;-64
2022/02/23 19:03:41;;;;;;;4.68;3.08;;;12.00;66.70;;;;;;10052880;28;20034;-64
2022/02/23 19:08:31;;;;;;;3.88;2.38;;;11.90;67.10;;;;;;10054721;28;20428;-66
2022/02/23 19:13:22;;;;;;;7.47;2.85;;;11.90;67.50;;;;;;10056167;28;20110;-64
2022/02/23 19:18:13;;;;;;;6.13;3.42;;;11.90;68.10;;;;;;10052312;28;20119;-63
2022/02/23 19:23:03;;;;;;;5.03;3.42;;;12.00;68.30;;;;;;10051752;28;20076;-64
2022/02/23 19:27:54;;;;;;;7.57;4.75;;;12.00;68.60;;;;;;10049066;28;20037;-64
2022/02/23 19:32:45;;;;;;;9.40;4.93;;;11.90;68.80;;;;;;10051870;28;20025;-66
2022/02/23 19:37:39;;;;;;;6.25;3.20;;;11.80;69.20;;;;;;10050223;28;20512;-64
2022/02/23 19:42:30;;;;;;;5.43;3.28;;;11.70;69.70;;;;;;10053372;28;20083;-65
2022/02/23 19:47:21;;;;;;;6.07;2.95;;;11.70;70.30;;;;;;10052157;28;20099;-63
2022/02/23 19:52:11;;;;;;;7.32;3.58;;;11.60;70.80;;;;;;10053221;28;20304;-66
2022/02/23 19:57:02;;;;;;;8.32;4.65;;;11.50;71.00;;;;;;10051604;28;20037;-65
2022/02/23 20:01:53;;;;;;;8.63;6.32;;;11.40;71.30;;;;;;10051745;28;20037;-65
2022/02/23 20:06:44;;;;;;;37.55;15.98;;;11.40;71.40;;;;;;10051228;28;20550;-63
2022/02/23 20:11:34;;;;;;;13.13;8.23;;;11.40;71.60;;;;;;10051504;28;20615;-63
2022/02/23 20:16:26;;;;;;;11.75;5.80;;;11.40;71.80;;;;;;10048725;28;20025;-65
2022/02/23 20:21:17;;;;;;;10.25;4.20;;;11.30;72.10;;;;;;10051659;28;20025;-65
2022/02/23 20:26:08;;;;;;;8.35;4.28;;;11.20;72.40;;;;;;10049386;28;20246;-65
2022/02/23 20:30:58;;;;;;;8.88;3.95;;;11.10;72.80;;;;;;10048369;28;20152;-64
2022/02/23 20:35:49;;;;;;;6.70;4.40;;;11.10;73.00;;;;;;10045346;28;20121;-66
2022/02/23 20:40:44;;;;;;;7.15;4.68;;;11.10;73.30;;;;;;10049856;28;20604;-63
2022/02/23 20:45:34;;;;;;;9.07;5.13;;;11.20;73.80;;;;;;10045745;28;20033;-67
2022/02/23 20:50:25;;;;;;;9.80;5.15;;;11.20;74.00;;;;;;10043358;28;21210;-63
2022/02/23 20:55:17;;;;;;;8.85;4.35;;;11.20;74.20;;;;;;10047789;28;20040;-72
2022/02/23 21:00:11;;;;;;;7.95;4.22;;;11.10;74.60;;;;;;10039588;28;20076;-70
2022/02/23 21:05:03;;;;;;;8.95;4.38;;;11.00;75.10;;;;;;10039537;28;20140;-65
2022/02/23 21:09:54;;;;;;;9.55;3.97;;;11.00;75.50;;;;;;10045218;28;20021;-69
2022/02/23 21:14:45;;;;;;;7.53;4.30;;;11.00;75.90;;;;;;10044805;28;20466;-67
2022/02/23 21:19:36;;;;;;;6.55;4.10;;;11.00;75.80;;;;;;10045196;28;20028;-71
2022/02/23 21:24:28;;;;;;;8.40;4.25;;;10.80;76.50;;;;;;10046092;28;20315;-69
2022/02/23 21:29:18;;;;;;;7.90;3.72;;;10.80;76.70;;;;;;10044909;28;20327;-63
2022/02/23 21:34:09;;;;;;;6.53;3.50;;;10.80;76.80;;;;;;10048625;28;20030;-64
2022/02/23 21:39:02;;;;;;;7.55;3.92;;;10.80;77.10;;;;;;10048454;28;20391;-64
2022/02/23 21:43:53;;;;;;;7.32;4.55;;;10.80;77.30;;;;;;10044777;28;20083;-65
2022/02/23 21:48:44;;;;;;;6.13;4.28;;;10.90;77.20;;;;;;10045488;28;20027;-61
2022/02/23 21:53:34;;;;;;;8.60;4.28;;;11.00;77.20;;;;;;10045154;28;20136;-64
2022/02/23 21:58:25;;;;;;;8.48;5.47;;;11.00;77.60;;;;;;10043405;28;20029;-64
2022/02/23 22:03:16;;;;;;;9.45;5.32;;;10.70;78.00;;;;;;10043955;28;20037;-63
2022/02/23 22:08:06;;;;;;;11.75;4.22;;;10.70;78.40;;;;;;10042085;28;20038;-62
2022/02/23 22:12:59;;;;;;;8.52;4.18;;;10.80;78.30;;;;;;10030499;28;20191;-62
2022/02/23 22:17:50;;;;;;;8.82;4.88;;;10.80;78.30;;;;;;10044503;28;20042;-63
2022/02/23 22:22:40;;;;;;;8.93;4.93;;;10.70;78.60;;;;;;10048162;28;20022;-63
2022/02/23 22:27:31;;;;;;;8.25;4.30;;;10.70;78.90;;;;;;10040805;28;20448;-64
2022/02/23 22:32:22;;;;;;;9.50;5.28;;;10.60;79.20;;;;;;10049369;28;20040;-63
2022/02/23 22:37:12;;;;;;;11.00;5.60;;;10.60;79.40;;;;;;10049567;28;20456;-63
2022/02/23 22:42:03;;;;;;;10.10;5.03;;;10.40;79.70;;;;;;10054004;28;20033;-62
2022/02/23 22:46:54;;;;;;;7.38;4.07;;;10.50;80.10;;;;;;10047321;28;20064;-62
2022/02/23 22:51:45;;;;;;;7.80;4.85;;;10.50;80.00;;;;;;10053119;28;20099;-62
2022/02/23 22:56:35;;;;;;;11.45;6.18;;;10.50;80.20;;;;;;10053492;28;20060;-63
2022/02/23 23:01:26;;;;;;;10.73;5.50;;;10.60;80.20;;;;;;10050415;28;20018;-62
2022/02/23 23:06:17;;;;;;;7.90;4.60;;;10.50;80.60;;;;;;10051666;28;20131;-62
2022/02/23 23:11:08;;;;;;;10.05;5.15;;;10.50;80.80;;;;;;10049428;28;20037;-62
2022/02/23 23:15:59;;;;;;;8.13;4.20;;;10.50;80.90;;;;;;10050682;28;20039;-63
2022/02/23 23:20:50;;;;;;;8.55;4.05;;;10.40;81.00;;;;;;10052734;28;20063;-65
2022/02/23 23:25:41;;;;;;;6.40;3.50;;;10.30;81.50;;;;;;10052901;28;20041;-61
2022/02/23 23:30:32;;;;;;;8.77;4.55;;;10.30;81.70;;;;;;10048137;28;20030;-62
2022/02/23 23:35:23;;;;;;;6.22;4.20;;;10.30;81.70;;;;;;10049927;28;20039;-64
2022/02/23 23:40:13;;;;;;;8.02;3.85;;;10.20;81.90;;;;;;10053912;28;20215;-61
2022/02/23 23:45:05;;;;;;;9.25;4.95;;;10.20;82.00;;;;;;10051804;28;20072;-63
2022/02/23 23:49:56;;;;;;;8.75;3.53;;;10.30;82.20;;;;;;10049112;28;20018;-62
2022/02/23 23:54:47;;;;;;;5.90;3.53;;;10.20;82.30;;;;;;10049788;28;20033;-64
2022/02/23 23:59:37;;;;;;;5.40;3.28;;;10.10;82.60;;;;;;10044620;28;20109;-64
